sensor_id;sensor_type;location;lat;lon;timestamp;P1;durP1;ratioP1;P2;durP2;ratioP2
59294;SDS011;45067;44.654;20.200;2023-11-21T00:01:04;72.85;;;36.95;;
59294;SDS011;45067;44.654;20.200;2023-11-21T00:03:36;59.03;;;34.45;;
59294;SDS011;45067;44.654;20.200;2023-11-21T00:06:36;60.15;;;34.67;;
59294;SDS011;45067;44.654;20.200;2023-11-21T00:09:49;61.75;;;37.70;;
59294;SDS011;45067;44.654;20.200;2023-11-21T00:12:54;66.75;;;38.63;;
59294;SDS011;45067;44.654;20.200;2023-11-21T00:15:51;65.82;;;38.50;;
59294;SDS011;45067;44.654;20.200;2023-11-21T00:18:58;75.75;;;40.78;;
59294;SDS011;45067;44.654;20.200;2023-11-21T00:22:17;68.80;;;40.20;;
59294;SDS011;45067;44.654;20.200;2023-11-21T00:25:03;67.15;;;40.53;;
59294;SDS011;45067;44.654;20.200;2023-11-21T00:27:53;79.35;;;46.22;;
59294;SDS011;45067;44.654;20.200;2023-11-21T00:30:43;75.45;;;44.63;;
59294;SDS011;45067;44.654;20.200;2023-11-21T00:33:10;80.35;;;45.00;;
59294;SDS011;45067;44.654;20.200;2023-11-21T00:35:36;76.60;;;43.15;;
59294;SDS011;45067;44.654;20.200;2023-11-21T00:38:02;77.10;;;45.00;;
59294;SDS011;45067;44.654;20.200;2023-11-21T00:40:28;73.05;;;41.97;;
59294;SDS011;45067;44.654;20.200;2023-11-21T00:42:54;59.05;;;34.92;;
59294;SDS011;45067;44.654;20.200;2023-11-21T00:45:21;56.60;;;33.67;;
59294;SDS011;45067;44.654;20.200;2023-11-21T00:47:47;51.35;;;31.65;;
59294;SDS011;45067;44.654;20.200;2023-11-21T00:50:13;54.00;;;30.13;;
59294;SDS011;45067;44.654;20.200;2023-11-21T00:52:39;47.60;;;29.35;;
59294;SDS011;45067;44.654;20.200;2023-11-21T00:55:05;47.03;;;28.58;;
59294;SDS011;45067;44.654;20.200;2023-11-21T00:57:32;48.47;;;28.63;;
59294;SDS011;45067;44.654;20.200;2023-11-21T00:59:59;47.50;;;29.00;;
59294;SDS011;45067;44.654;20.200;2023-11-21T01:02:25;49.63;;;30.70;;
59294;SDS011;45067;44.654;20.200;2023-11-21T01:04:51;48.85;;;28.92;;
59294;SDS011;45067;44.654;20.200;2023-11-21T01:07:17;51.38;;;29.63;;
59294;SDS011;45067;44.654;20.200;2023-11-21T01:09:46;51.90;;;32.95;;
59294;SDS011;45067;44.654;20.200;2023-11-21T01:12:12;58.05;;;33.22;;
59294;SDS011;45067;44.654;20.200;2023-11-21T01:14:38;63.85;;;35.55;;
59294;SDS011;45067;44.654;20.200;2023-11-21T01:17:04;64.60;;;36.13;;
59294;SDS011;45067;44.654;20.200;2023-11-21T01:19:30;71.68;;;37.38;;
59294;SDS011;45067;44.654;20.200;2023-11-21T01:21:56;65.00;;;36.80;;
59294;SDS011;45067;44.654;20.200;2023-11-21T01:24:23;72.18;;;38.28;;
59294;SDS011;45067;44.654;20.200;2023-11-21T01:26:49;67.80;;;37.80;;
59294;SDS011;45067;44.654;20.200;2023-11-21T01:29:17;72.18;;;39.58;;
59294;SDS011;45067;44.654;20.200;2023-11-21T01:31:43;63.53;;;35.85;;
59294;SDS011;45067;44.654;20.200;2023-11-21T01:34:09;62.58;;;38.22;;
59294;SDS011;45067;44.654;20.200;2023-11-21T01:36:35;67.35;;;36.20;;
59294;SDS011;45067;44.654;20.200;2023-11-21T01:39:10;61.55;;;34.53;;
59294;SDS011;45067;44.654;20.200;2023-11-21T01:41:40;62.17;;;33.55;;
59294;SDS011;45067;44.654;20.200;2023-11-21T01:44:09;60.67;;;32.85;;
59294;SDS011;45067;44.654;20.200;2023-11-21T01:46:35;51.85;;;30.00;;
59294;SDS011;45067;44.654;20.200;2023-11-21T01:49:03;55.30;;;31.67;;
59294;SDS011;45067;44.654;20.200;2023-11-21T01:51:29;50.15;;;29.90;;
59294;SDS011;45067;44.654;20.200;2023-11-21T01:53:56;53.67;;;29.35;;
59294;SDS011;45067;44.654;20.200;2023-11-21T01:56:22;52.47;;;29.48;;
59294;SDS011;45067;44.654;20.200;2023-11-21T01:58:49;46.35;;;28.52;;
59294;SDS011;45067;44.654;20.200;2023-11-21T02:01:16;45.60;;;27.50;;
59294;SDS011;45067;44.654;20.200;2023-11-21T02:03:43;49.08;;;28.80;;
59294;SDS011;45067;44.654;20.200;2023-11-21T02:06:09;49.83;;;28.23;;
59294;SDS011;45067;44.654;20.200;2023-11-21T02:08:36;47.95;;;27.50;;
59294;SDS011;45067;44.654;20.200;2023-11-21T02:11:02;49.95;;;28.13;;
59294;SDS011;45067;44.654;20.200;2023-11-21T02:13:29;48.33;;;27.00;;
59294;SDS011;45067;44.654;20.200;2023-11-21T02:15:55;47.47;;;26.42;;
59294;SDS011;45067;44.654;20.200;2023-11-21T02:18:21;47.10;;;26.95;;
59294;SDS011;45067;44.654;20.200;2023-11-21T02:20:47;46.65;;;27.55;;
59294;SDS011;45067;44.654;20.200;2023-11-21T02:23:13;43.75;;;27.02;;
59294;SDS011;45067;44.654;20.200;2023-11-21T02:25:39;48.35;;;27.52;;
59294;SDS011;45067;44.654;20.200;2023-11-21T02:28:07;47.42;;;27.13;;
59294;SDS011;45067;44.654;20.200;2023-11-21T02:30:34;46.47;;;26.52;;
59294;SDS011;45067;44.654;20.200;2023-11-21T02:33:01;41.42;;;27.60;;
59294;SDS011;45067;44.654;20.200;2023-11-21T02:35:27;45.50;;;27.50;;
59294;SDS011;45067;44.654;20.200;2023-11-21T02:37:53;47.38;;;27.05;;
59294;SDS011;45067;44.654;20.200;2023-11-21T02:40:20;46.38;;;26.52;;
59294;SDS011;45067;44.654;20.200;2023-11-21T02:42:46;46.65;;;26.05;;
59294;SDS011;45067;44.654;20.200;2023-11-21T02:45:13;48.75;;;28.20;;
59294;SDS011;45067;44.654;20.200;2023-11-21T02:47:41;45.92;;;27.98;;
59294;SDS011;45067;44.654;20.200;2023-11-21T02:50:08;44.80;;;26.45;;
59294;SDS011;45067;44.654;20.200;2023-11-21T02:52:34;51.83;;;29.15;;
59294;SDS011;45067;44.654;20.200;2023-11-21T02:55:03;48.75;;;25.95;;
59294;SDS011;45067;44.654;20.200;2023-11-21T02:57:29;51.67;;;29.13;;
59294;SDS011;45067;44.654;20.200;2023-11-21T02:59:55;60.72;;;32.70;;
59294;SDS011;45067;44.654;20.200;2023-11-21T03:02:21;59.00;;;33.00;;
59294;SDS011;45067;44.654;20.200;2023-11-21T03:04:48;59.30;;;32.30;;
59294;SDS011;45067;44.654;20.200;2023-11-21T03:07:14;65.85;;;36.85;;
59294;SDS011;45067;44.654;20.200;2023-11-21T03:09:40;61.63;;;35.17;;
59294;SDS011;45067;44.654;20.200;2023-11-21T03:12:06;67.13;;;36.03;;
59294;SDS011;45067;44.654;20.200;2023-11-21T03:14:34;63.25;;;34.80;;
59294;SDS011;45067;44.654;20.200;2023-11-21T03:17:00;57.63;;;33.55;;
59294;SDS011;45067;44.654;20.200;2023-11-21T03:19:29;62.90;;;34.22;;
59294;SDS011;45067;44.654;20.200;2023-11-21T03:21:55;62.28;;;33.95;;
59294;SDS011;45067;44.654;20.200;2023-11-21T03:24:21;55.60;;;32.47;;
59294;SDS011;45067;44.654;20.200;2023-11-21T03:26:48;62.75;;;37.08;;
59294;SDS011;45067;44.654;20.200;2023-11-21T03:29:16;64.45;;;38.30;;
59294;SDS011;45067;44.654;20.200;2023-11-21T03:31:42;66.00;;;39.33;;
59294;SDS011;45067;44.654;20.200;2023-11-21T03:34:10;71.05;;;43.20;;
59294;SDS011;45067;44.654;20.200;2023-11-21T03:36:37;66.97;;;39.40;;
59294;SDS011;45067;44.654;20.200;2023-11-21T03:39:03;66.65;;;39.28;;
59294;SDS011;45067;44.654;20.200;2023-11-21T03:41:30;68.03;;;39.63;;
59294;SDS011;45067;44.654;20.200;2023-11-21T03:43:56;63.58;;;38.63;;
59294;SDS011;45067;44.654;20.200;2023-11-21T03:46:22;58.28;;;37.15;;
59294;SDS011;45067;44.654;20.200;2023-11-21T03:48:48;62.70;;;37.63;;
59294;SDS011;45067;44.654;20.200;2023-11-21T03:51:14;62.63;;;39.15;;
59294;SDS011;45067;44.654;20.200;2023-11-21T03:53:40;67.05;;;38.97;;
59294;SDS011;45067;44.654;20.200;2023-11-21T03:56:07;60.22;;;37.55;;
59294;SDS011;45067;44.654;20.200;2023-11-21T03:58:33;63.22;;;38.22;;
59294;SDS011;45067;44.654;20.200;2023-11-21T04:00:59;65.40;;;37.90;;
59294;SDS011;45067;44.654;20.200;2023-11-21T04:03:25;64.72;;;38.22;;
59294;SDS011;45067;44.654;20.200;2023-11-21T04:05:51;60.13;;;35.85;;
59294;SDS011;45067;44.654;20.200;2023-11-21T04:08:17;69.40;;;38.58;;
59294;SDS011;45067;44.654;20.200;2023-11-21T04:10:43;63.15;;;37.72;;
59294;SDS011;45067;44.654;20.200;2023-11-21T04:13:09;65.40;;;38.13;;
59294;SDS011;45067;44.654;20.200;2023-11-21T04:15:35;69.57;;;40.38;;
59294;SDS011;45067;44.654;20.200;2023-11-21T04:18:01;62.22;;;37.13;;
59294;SDS011;45067;44.654;20.200;2023-11-21T04:20:28;69.53;;;37.90;;
59294;SDS011;45067;44.654;20.200;2023-11-21T04:22:54;63.70;;;40.00;;
59294;SDS011;45067;44.654;20.200;2023-11-21T04:25:20;66.30;;;37.78;;
59294;SDS011;45067;44.654;20.200;2023-11-21T04:27:48;61.38;;;36.65;;
59294;SDS011;45067;44.654;20.200;2023-11-21T04:30:14;63.95;;;38.03;;
59294;SDS011;45067;44.654;20.200;2023-11-21T04:32:40;63.33;;;37.88;;
59294;SDS011;45067;44.654;20.200;2023-11-21T04:35:07;63.67;;;38.47;;
59294;SDS011;45067;44.654;20.200;2023-11-21T04:37:36;79.63;;;44.47;;
59294;SDS011;45067;44.654;20.200;2023-11-21T04:40:02;78.18;;;46.30;;
59294;SDS011;45067;44.654;20.200;2023-11-21T04:42:33;72.72;;;41.80;;
59294;SDS011;45067;44.654;20.200;2023-11-21T04:44:59;71.68;;;41.22;;
59294;SDS011;45067;44.654;20.200;2023-11-21T04:47:26;68.15;;;39.10;;
59294;SDS011;45067;44.654;20.200;2023-11-21T04:49:52;65.68;;;38.38;;
59294;SDS011;45067;44.654;20.200;2023-11-21T04:52:18;67.55;;;39.75;;
59294;SDS011;45067;44.654;20.200;2023-11-21T04:54:45;61.92;;;36.60;;
59294;SDS011;45067;44.654;20.200;2023-11-21T04:57:11;54.30;;;32.83;;
59294;SDS011;45067;44.654;20.200;2023-11-21T04:59:37;58.30;;;33.70;;
59294;SDS011;45067;44.654;20.200;2023-11-21T05:02:03;56.70;;;35.83;;
59294;SDS011;45067;44.654;20.200;2023-11-21T05:04:30;64.72;;;37.30;;
59294;SDS011;45067;44.654;20.200;2023-11-21T05:06:56;60.92;;;35.55;;
59294;SDS011;45067;44.654;20.200;2023-11-21T05:09:22;59.13;;;34.75;;
59294;SDS011;45067;44.654;20.200;2023-11-21T05:11:48;61.80;;;36.63;;
59294;SDS011;45067;44.654;20.200;2023-11-21T05:14:14;60.80;;;35.72;;
59294;SDS011;45067;44.654;20.200;2023-11-21T05:16:41;62.47;;;36.58;;
59294;SDS011;45067;44.654;20.200;2023-11-21T05:19:07;57.97;;;35.20;;
59294;SDS011;45067;44.654;20.200;2023-11-21T05:21:34;61.72;;;35.15;;
59294;SDS011;45067;44.654;20.200;2023-11-21T05:24:01;62.80;;;34.88;;
59294;SDS011;45067;44.654;20.200;2023-11-21T05:26:27;65.07;;;38.17;;
59294;SDS011;45067;44.654;20.200;2023-11-21T05:28:53;77.25;;;40.90;;
59294;SDS011;45067;44.654;20.200;2023-11-21T05:31:19;85.72;;;42.72;;
59294;SDS011;45067;44.654;20.200;2023-11-21T05:33:45;73.65;;;40.60;;
59294;SDS011;45067;44.654;20.200;2023-11-21T05:36:11;75.90;;;40.47;;
59294;SDS011;45067;44.654;20.200;2023-11-21T05:38:38;73.53;;;38.95;;
59294;SDS011;45067;44.654;20.200;2023-11-21T05:41:04;64.45;;;37.17;;
59294;SDS011;45067;44.654;20.200;2023-11-21T05:43:30;62.08;;;37.05;;
59294;SDS011;45067;44.654;20.200;2023-11-21T05:45:57;72.38;;;39.55;;
59294;SDS011;45067;44.654;20.200;2023-11-21T05:48:23;60.55;;;37.22;;
59294;SDS011;45067;44.654;20.200;2023-11-21T05:50:50;70.50;;;38.08;;
59294;SDS011;45067;44.654;20.200;2023-11-21T05:53:16;70.43;;;39.25;;
59294;SDS011;45067;44.654;20.200;2023-11-21T05:55:42;72.32;;;37.67;;
59294;SDS011;45067;44.654;20.200;2023-11-21T05:58:09;75.45;;;38.65;;
59294;SDS011;45067;44.654;20.200;2023-11-21T06:00:35;71.07;;;39.17;;
59294;SDS011;45067;44.654;20.200;2023-11-21T06:03:02;74.90;;;40.40;;
59294;SDS011;45067;44.654;20.200;2023-11-21T06:05:28;75.38;;;40.10;;
59294;SDS011;45067;44.654;20.200;2023-11-21T06:07:57;76.90;;;38.47;;
59294;SDS011;45067;44.654;20.200;2023-11-21T06:10:26;69.55;;;39.30;;
59294;SDS011;45067;44.654;20.200;2023-11-21T06:12:53;64.68;;;38.58;;
59294;SDS011;45067;44.654;20.200;2023-11-21T06:15:19;62.70;;;36.03;;
59294;SDS011;45067;44.654;20.200;2023-11-21T06:17:47;55.30;;;32.13;;
59294;SDS011;45067;44.654;20.200;2023-11-21T06:20:17;56.45;;;33.03;;
59294;SDS011;45067;44.654;20.200;2023-11-21T06:22:45;76.70;;;38.55;;
59294;SDS011;45067;44.654;20.200;2023-11-21T06:25:12;76.65;;;38.78;;
59294;SDS011;45067;44.654;20.200;2023-11-21T06:27:40;71.65;;;38.97;;
59294;SDS011;45067;44.654;20.200;2023-11-21T06:30:06;69.63;;;39.40;;
59294;SDS011;45067;44.654;20.200;2023-11-21T06:32:34;67.57;;;40.05;;
59294;SDS011;45067;44.654;20.200;2023-11-21T06:35:01;76.03;;;39.10;;
59294;SDS011;45067;44.654;20.200;2023-11-21T06:37:29;60.58;;;34.88;;
59294;SDS011;45067;44.654;20.200;2023-11-21T06:39:55;43.80;;;26.90;;
59294;SDS011;45067;44.654;20.200;2023-11-21T06:42:23;52.92;;;29.70;;
59294;SDS011;45067;44.654;20.200;2023-11-21T06:44:49;65.07;;;35.50;;
59294;SDS011;45067;44.654;20.200;2023-11-21T06:47:19;72.83;;;38.17;;
59294;SDS011;45067;44.654;20.200;2023-11-21T06:49:50;75.20;;;39.58;;
59294;SDS011;45067;44.654;20.200;2023-11-21T06:52:16;76.28;;;42.38;;
59294;SDS011;45067;44.654;20.200;2023-11-21T06:54:43;83.32;;;43.25;;
59294;SDS011;45067;44.654;20.200;2023-11-21T06:57:10;84.32;;;42.47;;
59294;SDS011;45067;44.654;20.200;2023-11-21T06:59:36;78.97;;;43.53;;
59294;SDS011;45067;44.654;20.200;2023-11-21T07:02:02;74.50;;;40.47;;
59294;SDS011;45067;44.654;20.200;2023-11-21T07:04:29;74.57;;;43.85;;
59294;SDS011;45067;44.654;20.200;2023-11-21T07:06:56;77.97;;;40.40;;
59294;SDS011;45067;44.654;20.200;2023-11-21T07:09:22;75.97;;;42.70;;
59294;SDS011;45067;44.654;20.200;2023-11-21T07:11:50;72.25;;;38.60;;
59294;SDS011;45067;44.654;20.200;2023-11-21T07:14:16;68.80;;;36.75;;
59294;SDS011;45067;44.654;20.200;2023-11-21T07:16:44;75.13;;;37.65;;
59294;SDS011;45067;44.654;20.200;2023-11-21T07:19:10;118.90;;;52.63;;
59294;SDS011;45067;44.654;20.200;2023-11-21T07:21:37;127.03;;;66.25;;
59294;SDS011;45067;44.654;20.200;2023-11-21T07:24:04;102.03;;;57.78;;
59294;SDS011;45067;44.654;20.200;2023-11-21T07:26:31;97.03;;;54.97;;
59294;SDS011;45067;44.654;20.200;2023-11-21T07:29:03;94.07;;;50.60;;
59294;SDS011;45067;44.654;20.200;2023-11-21T07:33:59;100.82;;;54.17;;
59294;SDS011;45067;44.654;20.200;2023-11-21T07:36:26;97.55;;;53.20;;
59294;SDS011;45067;44.654;20.200;2023-11-21T07:38:52;79.88;;;47.35;;
59294;SDS011;45067;44.654;20.200;2023-11-21T07:41:18;64.85;;;39.13;;
59294;SDS011;45067;44.654;20.200;2023-11-21T07:43:45;68.35;;;38.13;;
59294;SDS011;45067;44.654;20.200;2023-11-21T07:46:12;64.60;;;37.13;;
59294;SDS011;45067;44.654;20.200;2023-11-21T07:48:38;60.15;;;36.00;;
59294;SDS011;45067;44.654;20.200;2023-11-21T07:51:04;60.00;;;35.95;;
59294;SDS011;45067;44.654;20.200;2023-11-21T07:53:32;65.18;;;37.00;;
59294;SDS011;45067;44.654;20.200;2023-11-21T07:55:58;57.38;;;35.88;;
59294;SDS011;45067;44.654;20.200;2023-11-21T07:58:24;54.90;;;34.45;;
59294;SDS011;45067;44.654;20.200;2023-11-21T08:00:50;57.97;;;34.80;;
59294;SDS011;45067;44.654;20.200;2023-11-21T08:03:17;57.20;;;33.47;;
59294;SDS011;45067;44.654;20.200;2023-11-21T08:05:43;55.78;;;34.22;;
59294;SDS011;45067;44.654;20.200;2023-11-21T08:08:09;66.55;;;38.83;;
59294;SDS011;45067;44.654;20.200;2023-11-21T08:10:35;69.30;;;39.83;;
59294;SDS011;45067;44.654;20.200;2023-11-21T08:13:02;64.53;;;38.97;;
59294;SDS011;45067;44.654;20.200;2023-11-21T08:15:29;57.13;;;34.75;;
59294;SDS011;45067;44.654;20.200;2023-11-21T08:17:57;59.72;;;35.88;;
59294;SDS011;45067;44.654;20.200;2023-11-21T08:20:24;55.85;;;36.17;;
59294;SDS011;45067;44.654;20.200;2023-11-21T08:25:53;60.97;;;35.33;;
59294;SDS011;45067;44.654;20.200;2023-11-21T08:28:20;62.25;;;36.25;;
59294;SDS011;45067;44.654;20.200;2023-11-21T08:33:17;61.30;;;36.10;;
59294;SDS011;45067;44.654;20.200;2023-11-21T08:35:43;60.15;;;35.70;;
59294;SDS011;45067;44.654;20.200;2023-11-21T08:41:14;58.88;;;37.90;;
59294;SDS011;45067;44.654;20.200;2023-11-21T08:43:41;58.60;;;36.65;;
59294;SDS011;45067;44.654;20.200;2023-11-21T08:46:07;63.95;;;39.67;;
59294;SDS011;45067;44.654;20.200;2023-11-21T08:48:34;64.80;;;39.83;;
59294;SDS011;45067;44.654;20.200;2023-11-21T08:51:01;60.33;;;36.38;;
59294;SDS011;45067;44.654;20.200;2023-11-21T08:53:27;66.18;;;38.22;;
59294;SDS011;45067;44.654;20.200;2023-11-21T08:55:53;61.55;;;38.75;;
59294;SDS011;45067;44.654;20.200;2023-11-21T08:58:19;68.18;;;39.78;;
59294;SDS011;45067;44.654;20.200;2023-11-21T09:00:45;65.15;;;41.65;;
59294;SDS011;45067;44.654;20.200;2023-11-21T09:03:12;70.10;;;42.08;;
59294;SDS011;45067;44.654;20.200;2023-11-21T09:05:39;70.85;;;41.83;;
59294;SDS011;45067;44.654;20.200;2023-11-21T09:11:08;71.43;;;42.92;;
59294;SDS011;45067;44.654;20.200;2023-11-21T09:13:34;75.38;;;44.15;;
59294;SDS011;45067;44.654;20.200;2023-11-21T09:16:01;73.97;;;44.67;;
59294;SDS011;45067;44.654;20.200;2023-11-21T09:18:27;69.97;;;40.88;;
59294;SDS011;45067;44.654;20.200;2023-11-21T09:20:54;71.30;;;42.00;;
59294;SDS011;45067;44.654;20.200;2023-11-21T09:23:20;80.85;;;44.75;;
59294;SDS011;45067;44.654;20.200;2023-11-21T09:25:46;80.18;;;45.85;;
59294;SDS011;45067;44.654;20.200;2023-11-21T09:28:15;76.07;;;42.70;;
59294;SDS011;45067;44.654;20.200;2023-11-21T09:30:42;72.18;;;42.35;;
59294;SDS011;45067;44.654;20.200;2023-11-21T09:33:08;79.32;;;42.28;;
59294;SDS011;45067;44.654;20.200;2023-11-21T09:35:38;69.35;;;40.00;;
59294;SDS011;45067;44.654;20.200;2023-11-21T09:38:04;67.38;;;38.15;;
59294;SDS011;45067;44.654;20.200;2023-11-21T09:40:35;69.25;;;40.80;;
59294;SDS011;45067;44.654;20.200;2023-11-21T09:43:02;70.15;;;37.28;;
59294;SDS011;45067;44.654;20.200;2023-11-21T09:47:59;59.88;;;37.15;;
59294;SDS011;45067;44.654;20.200;2023-11-21T09:50:25;61.20;;;36.33;;
59294;SDS011;45067;44.654;20.200;2023-11-21T09:55:39;70.35;;;41.92;;
59294;SDS011;45067;44.654;20.200;2023-11-21T09:58:07;64.05;;;40.13;;
59294;SDS011;45067;44.654;20.200;2023-11-21T10:00:37;81.53;;;48.78;;
59294;SDS011;45067;44.654;20.200;2023-11-21T10:03:04;77.03;;;44.97;;
59294;SDS011;45067;44.654;20.200;2023-11-21T10:05:30;89.35;;;50.53;;
59294;SDS011;45067;44.654;20.200;2023-11-21T10:07:59;84.15;;;48.20;;
59294;SDS011;45067;44.654;20.200;2023-11-21T10:10:26;68.22;;;40.65;;
59294;SDS011;45067;44.654;20.200;2023-11-21T10:12:57;67.15;;;39.63;;
59294;SDS011;45067;44.654;20.200;2023-11-21T10:15:26;69.88;;;41.35;;
59294;SDS011;45067;44.654;20.200;2023-11-21T10:17:53;75.65;;;46.13;;
59294;SDS011;45067;44.654;20.200;2023-11-21T10:20:20;76.72;;;45.53;;
59294;SDS011;45067;44.654;20.200;2023-11-21T10:22:48;78.55;;;45.08;;
59294;SDS011;45067;44.654;20.200;2023-11-21T10:25:15;67.63;;;40.47;;
59294;SDS011;45067;44.654;20.200;2023-11-21T10:27:43;64.13;;;39.78;;
59294;SDS011;45067;44.654;20.200;2023-11-21T10:30:12;67.93;;;40.42;;
59294;SDS011;45067;44.654;20.200;2023-11-21T10:32:38;57.22;;;37.88;;
59294;SDS011;45067;44.654;20.200;2023-11-21T10:35:06;63.50;;;40.10;;
59294;SDS011;45067;44.654;20.200;2023-11-21T10:37:38;63.57;;;39.90;;
59294;SDS011;45067;44.654;20.200;2023-11-21T10:40:06;63.03;;;38.93;;
59294;SDS011;45067;44.654;20.200;2023-11-21T10:42:32;60.88;;;36.47;;
59294;SDS011;45067;44.654;20.200;2023-11-21T10:44:58;57.45;;;33.65;;
59294;SDS011;45067;44.654;20.200;2023-11-21T10:47:25;48.97;;;32.60;;
59294;SDS011;45067;44.654;20.200;2023-11-21T10:49:52;49.40;;;34.08;;
59294;SDS011;45067;44.654;20.200;2023-11-21T10:52:21;47.97;;;35.97;;
59294;SDS011;45067;44.654;20.200;2023-11-21T10:54:47;49.63;;;36.58;;
59294;SDS011;45067;44.654;20.200;2023-11-21T10:57:17;50.17;;;37.42;;
59294;SDS011;45067;44.654;20.200;2023-11-21T10:59:46;53.22;;;37.72;;
59294;SDS011;45067;44.654;20.200;2023-11-21T11:04:46;50.60;;;35.50;;
59294;SDS011;45067;44.654;20.200;2023-11-21T11:07:12;57.50;;;38.60;;
59294;SDS011;45067;44.654;20.200;2023-11-21T11:09:39;54.25;;;37.55;;
59294;SDS011;45067;44.654;20.200;2023-11-21T11:12:05;54.70;;;37.28;;
59294;SDS011;45067;44.654;20.200;2023-11-21T11:14:32;55.70;;;39.13;;
59294;SDS011;45067;44.654;20.200;2023-11-21T11:16:58;51.00;;;37.80;;
59294;SDS011;45067;44.654;20.200;2023-11-21T11:19:25;50.17;;;38.58;;
59294;SDS011;45067;44.654;20.200;2023-11-21T11:24:30;57.95;;;39.83;;
59294;SDS011;45067;44.654;20.200;2023-11-21T11:27:06;56.15;;;41.20;;
59294;SDS011;45067;44.654;20.200;2023-11-21T11:29:41;52.22;;;40.00;;
59294;SDS011;45067;44.654;20.200;2023-11-21T11:32:21;56.38;;;41.42;;
59294;SDS011;45067;44.654;20.200;2023-11-21T11:34:56;57.22;;;43.13;;
59294;SDS011;45067;44.654;20.200;2023-11-21T11:37:25;70.93;;;48.60;;
59294;SDS011;45067;44.654;20.200;2023-11-21T11:39:52;71.10;;;49.22;;
59294;SDS011;45067;44.654;20.200;2023-11-21T11:42:19;67.18;;;48.28;;
59294;SDS011;45067;44.654;20.200;2023-11-21T11:44:49;66.65;;;47.20;;
59294;SDS011;45067;44.654;20.200;2023-11-21T11:52:34;56.78;;;40.20;;
59294;SDS011;45067;44.654;20.200;2023-11-21T11:55:01;56.97;;;40.28;;
59294;SDS011;45067;44.654;20.200;2023-11-21T11:57:31;58.75;;;41.28;;
59294;SDS011;45067;44.654;20.200;2023-11-21T12:02:51;60.45;;;41.42;;
59294;SDS011;45067;44.654;20.200;2023-11-21T12:05:18;54.10;;;39.95;;
59294;SDS011;45067;44.654;20.200;2023-11-21T12:10:14;53.25;;;39.55;;
59294;SDS011;45067;44.654;20.200;2023-11-21T12:12:46;54.28;;;39.22;;
59294;SDS011;45067;44.654;20.200;2023-11-21T12:15:13;53.85;;;39.13;;
59294;SDS011;45067;44.654;20.200;2023-11-21T12:17:42;54.55;;;38.58;;
59294;SDS011;45067;44.654;20.200;2023-11-21T12:20:09;53.22;;;40.88;;
59294;SDS011;45067;44.654;20.200;2023-11-21T12:22:45;57.40;;;40.83;;
59294;SDS011;45067;44.654;20.200;2023-11-21T12:27:50;71.68;;;46.83;;
59294;SDS011;45067;44.654;20.200;2023-11-21T12:30:18;62.80;;;45.83;;
59294;SDS011;45067;44.654;20.200;2023-11-21T12:32:45;67.60;;;49.08;;
59294;SDS011;45067;44.654;20.200;2023-11-21T12:35:11;58.53;;;42.53;;
59294;SDS011;45067;44.654;20.200;2023-11-21T12:37:38;66.85;;;43.22;;
59294;SDS011;45067;44.654;20.200;2023-11-21T12:40:05;53.00;;;38.72;;
59294;SDS011;45067;44.654;20.200;2023-11-21T12:42:32;53.30;;;38.97;;
59294;SDS011;45067;44.654;20.200;2023-11-21T12:47:43;57.60;;;41.13;;
59294;SDS011;45067;44.654;20.200;2023-11-21T12:50:10;56.45;;;41.28;;
59294;SDS011;45067;44.654;20.200;2023-11-21T12:52:43;66.53;;;49.65;;
59294;SDS011;45067;44.654;20.200;2023-11-21T12:55:18;57.80;;;42.22;;
59294;SDS011;45067;44.654;20.200;2023-11-21T12:57:50;63.20;;;45.10;;
59294;SDS011;45067;44.654;20.200;2023-11-21T13:00:17;62.35;;;43.10;;
59294;SDS011;45067;44.654;20.200;2023-11-21T13:02:56;66.20;;;46.47;;
59294;SDS011;45067;44.654;20.200;2023-11-21T13:07:49;77.28;;;48.63;;
59294;SDS011;45067;44.654;20.200;2023-11-21T13:10:19;78.90;;;52.10;;
59294;SDS011;45067;44.654;20.200;2023-11-21T13:12:49;76.97;;;51.38;;
59294;SDS011;45067;44.654;20.200;2023-11-21T13:15:16;70.93;;;48.45;;
59294;SDS011;45067;44.654;20.200;2023-11-21T13:17:46;60.90;;;41.85;;
59294;SDS011;45067;44.654;20.200;2023-11-21T13:20:13;62.90;;;43.70;;
59294;SDS011;45067;44.654;20.200;2023-11-21T13:22:53;56.05;;;41.03;;
59294;SDS011;45067;44.654;20.200;2023-11-21T13:25:24;49.33;;;35.30;;
59294;SDS011;45067;44.654;20.200;2023-11-21T13:27:52;51.55;;;35.97;;
59294;SDS011;45067;44.654;20.200;2023-11-21T13:30:19;51.58;;;35.65;;
59294;SDS011;45067;44.654;20.200;2023-11-21T13:33:11;53.38;;;37.72;;
59294;SDS011;45067;44.654;20.200;2023-11-21T13:35:42;47.50;;;35.72;;
59294;SDS011;45067;44.654;20.200;2023-11-21T13:38:14;49.35;;;37.22;;
59294;SDS011;45067;44.654;20.200;2023-11-21T13:40:47;44.65;;;33.90;;
59294;SDS011;45067;44.654;20.200;2023-11-21T13:43:15;47.70;;;35.33;;
59294;SDS011;45067;44.654;20.200;2023-11-21T13:45:43;45.33;;;33.58;;
59294;SDS011;45067;44.654;20.200;2023-11-21T13:48:11;55.65;;;38.97;;
59294;SDS011;45067;44.654;20.200;2023-11-21T13:50:47;55.95;;;39.05;;
59294;SDS011;45067;44.654;20.200;2023-11-21T13:53:24;59.15;;;41.17;;
59294;SDS011;45067;44.654;20.200;2023-11-21T13:55:51;57.80;;;38.75;;
59294;SDS011;45067;44.654;20.200;2023-11-21T13:58:22;49.38;;;35.75;;
59294;SDS011;45067;44.654;20.200;2023-11-21T14:01:05;46.33;;;34.47;;
59294;SDS011;45067;44.654;20.200;2023-11-21T14:03:38;48.53;;;35.08;;
59294;SDS011;45067;44.654;20.200;2023-11-21T14:06:15;52.75;;;38.25;;
59294;SDS011;45067;44.654;20.200;2023-11-21T14:08:49;51.53;;;37.00;;
59294;SDS011;45067;44.654;20.200;2023-11-21T14:11:15;46.28;;;35.00;;
59294;SDS011;45067;44.654;20.200;2023-11-21T14:13:45;46.95;;;34.38;;
59294;SDS011;45067;44.654;20.200;2023-11-21T14:16:13;49.10;;;34.15;;
59294;SDS011;45067;44.654;20.200;2023-11-21T14:18:41;44.88;;;33.60;;
59294;SDS011;45067;44.654;20.200;2023-11-21T14:21:20;51.10;;;34.03;;
59294;SDS011;45067;44.654;20.200;2023-11-21T14:23:46;43.83;;;32.97;;
59294;SDS011;45067;44.654;20.200;2023-11-21T14:26:13;51.15;;;35.30;;
59294;SDS011;45067;44.654;20.200;2023-11-21T14:28:40;49.47;;;35.85;;
59294;SDS011;45067;44.654;20.200;2023-11-21T14:31:07;52.08;;;36.95;;
59294;SDS011;45067;44.654;20.200;2023-11-21T14:33:38;53.10;;;38.08;;
59294;SDS011;45067;44.654;20.200;2023-11-21T14:36:04;49.72;;;36.20;;
59294;SDS011;45067;44.654;20.200;2023-11-21T14:38:33;48.58;;;35.72;;
59294;SDS011;45067;44.654;20.200;2023-11-21T14:40:59;50.75;;;37.00;;
59294;SDS011;45067;44.654;20.200;2023-11-21T14:43:25;51.15;;;36.45;;
59294;SDS011;45067;44.654;20.200;2023-11-21T14:45:54;48.92;;;35.85;;
59294;SDS011;45067;44.654;20.200;2023-11-21T14:48:23;55.58;;;39.50;;
59294;SDS011;45067;44.654;20.200;2023-11-21T14:51:07;56.22;;;37.47;;
59294;SDS011;45067;44.654;20.200;2023-11-21T14:53:53;57.03;;;38.95;;
59294;SDS011;45067;44.654;20.200;2023-11-21T14:56:22;56.92;;;39.60;;
59294;SDS011;45067;44.654;20.200;2023-11-21T14:58:56;52.83;;;37.47;;